Paradise, California
Current Conditions -  °F | °C
As of 10:59 AM on Thursday 23 Oct 2014 (Local Time) from KCIC Reporting Station
Light Rain Light Rain  
Wind Chill: 63°   Ceiling: 7000
Heat Index: 63°   Visibility: 10mi
Dew Point: 52°   Wind: 12mph
Humidity: 68%   Direction: 130°SE
Pressure: 30.07"   Gusts: NA
Location:  39.75°N, 121.6°W
Report Text: KCIC 231759Z 13010KT 10SM -RA BKN070 OVC100 17/11 A3007
Loading
Personal Weather Stations






























Interactive Weather Map
Tropical Storm Tracking
New forecast layout! Learn more

10-Day Weather Forecast

Advertisements
Track Severe Weather on mobile